sensor_id;sensor_type;location;lat;lon;timestamp;P1;durP1;ratioP1;P2;durP2;ratioP2
14619;SDS011;32125;48.518;9.050;2022-11-15T00:01:25;21.93;;;16.43;;
14619;SDS011;32125;48.518;9.050;2022-11-15T00:03:51;19.60;;;15.53;;
14619;SDS011;32125;48.518;9.050;2022-11-15T00:06:17;20.97;;;16.23;;
14619;SDS011;32125;48.518;9.050;2022-11-15T00:08:43;21.97;;;16.23;;
14619;SDS011;32125;48.518;9.050;2022-11-15T00:11:09;20.17;;;15.27;;
14619;SDS011;32125;48.518;9.050;2022-11-15T00:13:37;19.83;;;14.80;;
14619;SDS011;32125;48.518;9.050;2022-11-15T00:16:03;20.00;;;15.70;;
14619;SDS011;32125;48.518;9.050;2022-11-15T00:18:29;24.97;;;17.10;;
14619;SDS011;32125;48.518;9.050;2022-11-15T00:20:56;21.43;;;16.83;;
14619;SDS011;32125;48.518;9.050;2022-11-15T00:23:22;21.77;;;15.03;;
14619;SDS011;32125;48.518;9.050;2022-11-15T00:25:54;21.47;;;16.57;;
14619;SDS011;32125;48.518;9.050;2022-11-15T00:28:21;20.00;;;14.87;;
14619;SDS011;32125;48.518;9.050;2022-11-15T00:30:47;23.97;;;16.77;;
14619;SDS011;32125;48.518;9.050;2022-11-15T00:33:13;17.83;;;13.90;;
14619;SDS011;32125;48.518;9.050;2022-11-15T00:35:39;20.37;;;15.00;;
14619;SDS011;32125;48.518;9.050;2022-11-15T00:38:06;19.37;;;15.03;;
14619;SDS011;32125;48.518;9.050;2022-11-15T00:40:32;17.50;;;13.47;;
14619;SDS011;32125;48.518;9.050;2022-11-15T00:42:58;19.27;;;14.77;;
14619;SDS011;32125;48.518;9.050;2022-11-15T00:45:25;20.67;;;15.93;;
14619;SDS011;32125;48.518;9.050;2022-11-15T00:47:51;22.03;;;15.70;;
14619;SDS011;32125;48.518;9.050;2022-11-15T00:50:18;20.67;;;16.20;;
14619;SDS011;32125;48.518;9.050;2022-11-15T00:52:44;17.23;;;14.47;;
14619;SDS011;32125;48.518;9.050;2022-11-15T00:55:16;17.67;;;14.73;;
14619;SDS011;32125;48.518;9.050;2022-11-15T00:57:42;21.00;;;16.40;;
14619;SDS011;32125;48.518;9.050;2022-11-15T01:00:08;20.43;;;15.13;;
14619;SDS011;32125;48.518;9.050;2022-11-15T01:02:36;17.33;;;14.90;;
14619;SDS011;32125;48.518;9.050;2022-11-15T01:05:02;19.97;;;14.80;;
14619;SDS011;32125;48.518;9.050;2022-11-15T01:07:38;20.40;;;16.47;;
14619;SDS011;32125;48.518;9.050;2022-11-15T01:10:04;20.90;;;16.37;;
14619;SDS011;32125;48.518;9.050;2022-11-15T01:12:30;22.07;;;15.83;;
14619;SDS011;32125;48.518;9.050;2022-11-15T01:14:59;19.03;;;15.40;;
14619;SDS011;32125;48.518;9.050;2022-11-15T01:17:25;17.53;;;14.80;;
14619;SDS011;32125;48.518;9.050;2022-11-15T01:19:51;18.47;;;14.83;;
14619;SDS011;32125;48.518;9.050;2022-11-15T01:22:17;20.03;;;15.10;;
14619;SDS011;32125;48.518;9.050;2022-11-15T01:24:43;19.70;;;14.17;;
14619;SDS011;32125;48.518;9.050;2022-11-15T01:27:09;18.50;;;13.07;;
14619;SDS011;32125;48.518;9.050;2022-11-15T01:29:35;19.10;;;13.27;;
14619;SDS011;32125;48.518;9.050;2022-11-15T01:32:01;27.67;;;14.00;;
14619;SDS011;32125;48.518;9.050;2022-11-15T01:34:30;21.73;;;12.17;;
14619;SDS011;32125;48.518;9.050;2022-11-15T01:36:56;23.30;;;11.57;;
14619;SDS011;32125;48.518;9.050;2022-11-15T01:39:24;48.10;;;13.93;;
14619;SDS011;32125;48.518;9.050;2022-11-15T01:41:53;34.93;;;12.43;;
14619;SDS011;32125;48.518;9.050;2022-11-15T01:47:03;22.23;;;13.47;;
14619;SDS011;32125;48.518;9.050;2022-11-15T01:49:33;17.13;;;12.20;;
14619;SDS011;32125;48.518;9.050;2022-11-15T01:52:03;22.07;;;13.80;;
14619;SDS011;32125;48.518;9.050;2022-11-15T01:54:34;17.17;;;12.27;;
14619;SDS011;32125;48.518;9.050;2022-11-15T01:57:01;16.97;;;13.13;;
14619;SDS011;32125;48.518;9.050;2022-11-15T01:59:37;14.60;;;11.47;;
14619;SDS011;32125;48.518;9.050;2022-11-15T02:02:06;17.40;;;12.67;;
14619;SDS011;32125;48.518;9.050;2022-11-15T02:04:35;20.57;;;12.73;;
14619;SDS011;32125;48.518;9.050;2022-11-15T02:07:04;16.30;;;13.07;;
14619;SDS011;32125;48.518;9.050;2022-11-15T02:09:31;17.97;;;13.37;;
14619;SDS011;32125;48.518;9.050;2022-11-15T02:12:03;16.07;;;12.60;;
14619;SDS011;32125;48.518;9.050;2022-11-15T02:14:32;18.40;;;12.43;;
14619;SDS011;32125;48.518;9.050;2022-11-15T02:16:59;18.10;;;12.03;;
14619;SDS011;32125;48.518;9.050;2022-11-15T02:32:45;18.93;;;12.17;;
14619;SDS011;32125;48.518;9.050;2022-11-15T02:41:13;25.37;;;12.17;;
14619;SDS011;32125;48.518;9.050;2022-11-15T02:43:41;19.80;;;13.37;;
14619;SDS011;32125;48.518;9.050;2022-11-15T02:49:10;21.37;;;12.80;;
14619;SDS011;32125;48.518;9.050;2022-11-15T02:51:39;17.90;;;12.63;;
14619;SDS011;32125;48.518;9.050;2022-11-15T02:54:06;24.97;;;14.27;;
14619;SDS011;32125;48.518;9.050;2022-11-15T02:56:31;22.47;;;12.97;;
14619;SDS011;32125;48.518;9.050;2022-11-15T03:01:34;30.97;;;14.47;;
14619;SDS011;32125;48.518;9.050;2022-11-15T03:06:55;22.53;;;12.90;;
14619;SDS011;32125;48.518;9.050;2022-11-15T03:12:04;16.40;;;12.23;;
14619;SDS011;32125;48.518;9.050;2022-11-15T03:14:45;28.40;;;14.70;;
14619;SDS011;32125;48.518;9.050;2022-11-15T03:17:29;19.00;;;12.60;;
14619;SDS011;32125;48.518;9.050;2022-11-15T03:20:01;17.20;;;13.40;;
14619;SDS011;32125;48.518;9.050;2022-11-15T03:22:30;20.27;;;12.90;;
14619;SDS011;32125;48.518;9.050;2022-11-15T03:25:04;24.23;;;14.53;;
14619;SDS011;32125;48.518;9.050;2022-11-15T03:27:35;19.87;;;12.97;;
14619;SDS011;32125;48.518;9.050;2022-11-15T03:30:05;28.97;;;14.70;;
14619;SDS011;32125;48.518;9.050;2022-11-15T03:32:44;24.43;;;15.27;;
14619;SDS011;32125;48.518;9.050;2022-11-15T03:35:16;22.13;;;13.77;;
14619;SDS011;32125;48.518;9.050;2022-11-15T03:40:22;18.83;;;13.40;;
14619;SDS011;32125;48.518;9.050;2022-11-15T03:43:24;20.40;;;13.20;;
14619;SDS011;32125;48.518;9.050;2022-11-15T03:46:04;18.67;;;13.70;;
14619;SDS011;32125;48.518;9.050;2022-11-15T03:48:49;23.00;;;14.67;;
14619;SDS011;32125;48.518;9.050;2022-11-15T03:51:46;14.77;;;12.30;;
14619;SDS011;32125;48.518;9.050;2022-11-15T03:54:12;20.17;;;14.50;;
14619;SDS011;32125;48.518;9.050;2022-11-15T03:56:40;16.03;;;12.93;;
14619;SDS011;32125;48.518;9.050;2022-11-15T03:59:06;20.30;;;15.47;;
14619;SDS011;32125;48.518;9.050;2022-11-15T04:01:32;19.50;;;13.13;;
14619;SDS011;32125;48.518;9.050;2022-11-15T04:04:00;17.87;;;14.27;;
14619;SDS011;32125;48.518;9.050;2022-11-15T04:06:28;19.40;;;13.63;;
14619;SDS011;32125;48.518;9.050;2022-11-15T04:08:54;17.87;;;13.33;;
14619;SDS011;32125;48.518;9.050;2022-11-15T04:11:20;19.00;;;14.47;;
14619;SDS011;32125;48.518;9.050;2022-11-15T04:13:46;15.93;;;13.67;;
14619;SDS011;32125;48.518;9.050;2022-11-15T04:16:12;20.23;;;14.73;;
14619;SDS011;32125;48.518;9.050;2022-11-15T04:18:38;17.90;;;13.90;;
14619;SDS011;32125;48.518;9.050;2022-11-15T04:21:07;19.70;;;14.67;;
14619;SDS011;32125;48.518;9.050;2022-11-15T04:23:52;16.47;;;13.63;;
14619;SDS011;32125;48.518;9.050;2022-11-15T04:26:25;21.33;;;14.13;;
14619;SDS011;32125;48.518;9.050;2022-11-15T04:28:52;15.83;;;13.30;;
14619;SDS011;32125;48.518;9.050;2022-11-15T04:31:36;17.07;;;13.77;;
14619;SDS011;32125;48.518;9.050;2022-11-15T04:34:04;14.70;;;12.70;;
14619;SDS011;32125;48.518;9.050;2022-11-15T04:36:31;17.80;;;12.50;;
14619;SDS011;32125;48.518;9.050;2022-11-15T04:39:15;14.33;;;11.87;;
14619;SDS011;32125;48.518;9.050;2022-11-15T04:41:41;14.97;;;12.47;;
14619;SDS011;32125;48.518;9.050;2022-11-15T04:44:06;15.27;;;11.60;;
14619;SDS011;32125;48.518;9.050;2022-11-15T04:46:32;18.50;;;13.50;;
14619;SDS011;32125;48.518;9.050;2022-11-15T04:48:58;14.07;;;11.87;;
14619;SDS011;32125;48.518;9.050;2022-11-15T04:51:25;15.57;;;12.67;;
14619;SDS011;32125;48.518;9.050;2022-11-15T04:53:51;15.30;;;12.47;;
14619;SDS011;32125;48.518;9.050;2022-11-15T04:56:17;16.03;;;12.70;;
14619;SDS011;32125;48.518;9.050;2022-11-15T04:58:43;13.83;;;11.83;;
14619;SDS011;32125;48.518;9.050;2022-11-15T05:01:13;14.30;;;11.73;;
14619;SDS011;32125;48.518;9.050;2022-11-15T05:03:42;15.43;;;12.93;;
14619;SDS011;32125;48.518;9.050;2022-11-15T05:06:27;14.13;;;11.47;;
14619;SDS011;32125;48.518;9.050;2022-11-15T05:08:53;17.37;;;13.03;;
14619;SDS011;32125;48.518;9.050;2022-11-15T05:11:19;15.53;;;12.90;;
14619;SDS011;32125;48.518;9.050;2022-11-15T05:13:52;16.87;;;12.33;;
14619;SDS011;32125;48.518;9.050;2022-11-15T05:16:20;15.67;;;12.33;;
14619;SDS011;32125;48.518;9.050;2022-11-15T05:18:46;17.70;;;12.83;;
14619;SDS011;32125;48.518;9.050;2022-11-15T05:21:15;15.97;;;13.13;;
14619;SDS011;32125;48.518;9.050;2022-11-15T05:23:41;17.90;;;12.60;;
14619;SDS011;32125;48.518;9.050;2022-11-15T05:26:07;14.30;;;11.60;;
14619;SDS011;32125;48.518;9.050;2022-11-15T05:28:37;14.97;;;11.60;;
14619;SDS011;32125;48.518;9.050;2022-11-15T05:31:12;16.60;;;12.37;;
14619;SDS011;32125;48.518;9.050;2022-11-15T05:33:40;15.37;;;12.93;;
14619;SDS011;32125;48.518;9.050;2022-11-15T05:38:41;16.63;;;12.90;;
14619;SDS011;32125;48.518;9.050;2022-11-15T05:41:07;16.60;;;12.63;;
14619;SDS011;32125;48.518;9.050;2022-11-15T05:43:33;15.97;;;12.47;;
14619;SDS011;32125;48.518;9.050;2022-11-15T05:46:03;15.87;;;11.87;;
14619;SDS011;32125;48.518;9.050;2022-11-15T05:48:30;15.40;;;11.87;;
14619;SDS011;32125;48.518;9.050;2022-11-15T05:50:56;13.57;;;11.93;;
14619;SDS011;32125;48.518;9.050;2022-11-15T05:53:22;14.57;;;12.53;;
14619;SDS011;32125;48.518;9.050;2022-11-15T05:55:50;15.23;;;11.83;;
14619;SDS011;32125;48.518;9.050;2022-11-15T05:58:16;18.10;;;12.23;;
14619;SDS011;32125;48.518;9.050;2022-11-15T06:00:43;13.43;;;11.67;;
14619;SDS011;32125;48.518;9.050;2022-11-15T06:03:11;13.27;;;11.27;;
14619;SDS011;32125;48.518;9.050;2022-11-15T06:05:39;14.03;;;11.57;;
14619;SDS011;32125;48.518;9.050;2022-11-15T06:08:05;14.47;;;11.77;;
14619;SDS011;32125;48.518;9.050;2022-11-15T06:10:31;14.03;;;11.20;;
14619;SDS011;32125;48.518;9.050;2022-11-15T06:12:58;13.30;;;10.77;;
14619;SDS011;32125;48.518;9.050;2022-11-15T06:15:24;13.37;;;10.60;;
14619;SDS011;32125;48.518;9.050;2022-11-15T06:17:55;17.47;;;11.70;;
14619;SDS011;32125;48.518;9.050;2022-11-15T06:20:25;13.87;;;11.90;;
14619;SDS011;32125;48.518;9.050;2022-11-15T06:22:56;12.50;;;11.20;;
14619;SDS011;32125;48.518;9.050;2022-11-15T06:25:22;14.03;;;11.07;;
14619;SDS011;32125;48.518;9.050;2022-11-15T06:27:55;16.17;;;12.80;;
14619;SDS011;32125;48.518;9.050;2022-11-15T06:30:24;15.63;;;12.03;;
14619;SDS011;32125;48.518;9.050;2022-11-15T06:33:03;12.93;;;11.50;;
14619;SDS011;32125;48.518;9.050;2022-11-15T06:35:29;14.10;;;12.10;;
14619;SDS011;32125;48.518;9.050;2022-11-15T06:37:55;13.93;;;11.77;;
14619;SDS011;32125;48.518;9.050;2022-11-15T06:40:21;16.90;;;12.23;;
14619;SDS011;32125;48.518;9.050;2022-11-15T06:42:51;12.70;;;10.73;;
14619;SDS011;32125;48.518;9.050;2022-11-15T06:45:25;14.47;;;12.10;;
14619;SDS011;32125;48.518;9.050;2022-11-15T06:47:51;13.93;;;10.63;;
14619;SDS011;32125;48.518;9.050;2022-11-15T06:50:17;14.77;;;11.33;;
14619;SDS011;32125;48.518;9.050;2022-11-15T06:52:45;14.67;;;12.10;;
14619;SDS011;32125;48.518;9.050;2022-11-15T06:55:11;14.17;;;11.63;;
14619;SDS011;32125;48.518;9.050;2022-11-15T06:57:43;14.00;;;11.00;;
14619;SDS011;32125;48.518;9.050;2022-11-15T07:00:15;14.40;;;10.97;;
14619;SDS011;32125;48.518;9.050;2022-11-15T07:02:42;14.00;;;11.87;;
14619;SDS011;32125;48.518;9.050;2022-11-15T07:05:08;13.40;;;11.30;;
14619;SDS011;32125;48.518;9.050;2022-11-15T07:07:34;16.87;;;12.23;;
14619;SDS011;32125;48.518;9.050;2022-11-15T07:10:00;15.97;;;12.23;;
14619;SDS011;32125;48.518;9.050;2022-11-15T07:12:27;15.00;;;12.73;;
14619;SDS011;32125;48.518;9.050;2022-11-15T07:14:56;14.80;;;11.77;;
14619;SDS011;32125;48.518;9.050;2022-11-15T07:17:24;15.17;;;11.70;;
14619;SDS011;32125;48.518;9.050;2022-11-15T07:19:50;13.13;;;11.17;;
14619;SDS011;32125;48.518;9.050;2022-11-15T07:22:22;14.10;;;11.23;;
14619;SDS011;32125;48.518;9.050;2022-11-15T07:24:50;14.80;;;10.50;;
14619;SDS011;32125;48.518;9.050;2022-11-15T07:27:16;19.47;;;12.67;;
14619;SDS011;32125;48.518;9.050;2022-11-15T07:29:42;13.67;;;11.80;;
14619;SDS011;32125;48.518;9.050;2022-11-15T07:32:09;14.17;;;10.77;;
14619;SDS011;32125;48.518;9.050;2022-11-15T07:34:35;12.73;;;10.63;;
14619;SDS011;32125;48.518;9.050;2022-11-15T07:37:01;11.23;;;10.03;;
14619;SDS011;32125;48.518;9.050;2022-11-15T07:39:27;11.13;;;9.57;;
14619;SDS011;32125;48.518;9.050;2022-11-15T07:41:53;11.53;;;9.47;;
14619;SDS011;32125;48.518;9.050;2022-11-15T07:44:41;11.13;;;9.67;;
14619;SDS011;32125;48.518;9.050;2022-11-15T07:47:09;14.63;;;9.87;;
14619;SDS011;32125;48.518;9.050;2022-11-15T07:49:35;12.33;;;9.73;;
14619;SDS011;32125;48.518;9.050;2022-11-15T07:52:01;11.43;;;8.83;;
14619;SDS011;32125;48.518;9.050;2022-11-15T07:54:27;14.90;;;8.80;;
14619;SDS011;32125;48.518;9.050;2022-11-15T07:56:53;13.63;;;9.70;;
14619;SDS011;32125;48.518;9.050;2022-11-15T07:59:19;13.20;;;9.13;;
14619;SDS011;32125;48.518;9.050;2022-11-15T08:01:45;11.90;;;9.57;;
14619;SDS011;32125;48.518;9.050;2022-11-15T08:04:12;13.90;;;8.67;;
14619;SDS011;32125;48.518;9.050;2022-11-15T08:06:58;15.30;;;9.47;;
14619;SDS011;32125;48.518;9.050;2022-11-15T08:09:24;13.37;;;9.20;;
14619;SDS011;32125;48.518;9.050;2022-11-15T08:11:53;15.97;;;8.80;;
14619;SDS011;32125;48.518;9.050;2022-11-15T08:14:19;13.90;;;8.60;;
14619;SDS011;32125;48.518;9.050;2022-11-15T08:16:47;12.83;;;8.90;;
14619;SDS011;32125;48.518;9.050;2022-11-15T08:19:13;13.80;;;9.07;;
14619;SDS011;32125;48.518;9.050;2022-11-15T08:21:39;11.33;;;8.40;;
14619;SDS011;32125;48.518;9.050;2022-11-15T08:24:08;10.07;;;7.60;;
14619;SDS011;32125;48.518;9.050;2022-11-15T08:26:35;11.60;;;8.57;;
14619;SDS011;32125;48.518;9.050;2022-11-15T08:29:01;10.67;;;7.93;;
14619;SDS011;32125;48.518;9.050;2022-11-15T08:31:27;10.57;;;8.03;;
14619;SDS011;32125;48.518;9.050;2022-11-15T08:33:53;9.73;;;7.60;;
14619;SDS011;32125;48.518;9.050;2022-11-15T08:36:20;11.03;;;7.63;;
14619;SDS011;32125;48.518;9.050;2022-11-15T08:38:46;10.00;;;7.13;;
14619;SDS011;32125;48.518;9.050;2022-11-15T08:41:23;10.60;;;7.27;;
14619;SDS011;32125;48.518;9.050;2022-11-15T08:43:56;13.13;;;7.47;;
14619;SDS011;32125;48.518;9.050;2022-11-15T08:46:22;11.20;;;6.83;;
14619;SDS011;32125;48.518;9.050;2022-11-15T08:48:48;16.53;;;7.63;;
14619;SDS011;32125;48.518;9.050;2022-11-15T08:51:14;8.50;;;6.60;;
14619;SDS011;32125;48.518;9.050;2022-11-15T08:53:41;8.70;;;7.07;;
14619;SDS011;32125;48.518;9.050;2022-11-15T08:56:07;8.83;;;6.63;;
14619;SDS011;32125;48.518;9.050;2022-11-15T08:58:34;10.43;;;6.73;;
14619;SDS011;32125;48.518;9.050;2022-11-15T09:01:01;9.50;;;6.80;;
14619;SDS011;32125;48.518;9.050;2022-11-15T09:03:27;12.00;;;7.03;;
14619;SDS011;32125;48.518;9.050;2022-11-15T09:05:57;11.07;;;6.93;;
14619;SDS011;32125;48.518;9.050;2022-11-15T09:08:23;10.10;;;6.93;;
14619;SDS011;32125;48.518;9.050;2022-11-15T09:10:50;10.10;;;6.80;;
14619;SDS011;32125;48.518;9.050;2022-11-15T09:13:16;8.47;;;6.37;;
14619;SDS011;32125;48.518;9.050;2022-11-15T09:15:42;10.23;;;6.80;;
14619;SDS011;32125;48.518;9.050;2022-11-15T09:18:11;12.07;;;6.30;;
14619;SDS011;32125;48.518;9.050;2022-11-15T09:20:36;10.67;;;6.20;;
14619;SDS011;32125;48.518;9.050;2022-11-15T09:23:03;10.57;;;5.90;;
14619;SDS011;32125;48.518;9.050;2022-11-15T09:25:30;10.47;;;6.67;;
14619;SDS011;32125;48.518;9.050;2022-11-15T09:27:56;14.43;;;6.23;;
14619;SDS011;32125;48.518;9.050;2022-11-15T09:30:22;11.83;;;6.40;;
14619;SDS011;32125;48.518;9.050;2022-11-15T09:32:48;10.47;;;6.13;;
14619;SDS011;32125;48.518;9.050;2022-11-15T09:35:14;11.63;;;6.70;;
14619;SDS011;32125;48.518;9.050;2022-11-15T09:37:40;13.13;;;6.93;;
14619;SDS011;32125;48.518;9.050;2022-11-15T09:40:09;9.80;;;6.83;;
14619;SDS011;32125;48.518;9.050;2022-11-15T09:42:44;11.70;;;6.90;;
14619;SDS011;32125;48.518;9.050;2022-11-15T09:45:32;14.80;;;6.70;;
14619;SDS011;32125;48.518;9.050;2022-11-15T09:50:46;13.67;;;7.07;;
14619;SDS011;32125;48.518;9.050;2022-11-15T09:53:25;11.50;;;7.27;;
14619;SDS011;32125;48.518;9.050;2022-11-15T09:56:05;10.93;;;6.60;;
14619;SDS011;32125;48.518;9.050;2022-11-15T10:01:06;12.30;;;6.30;;
14619;SDS011;32125;48.518;9.050;2022-11-15T10:03:38;13.60;;;6.10;;
14619;SDS011;32125;48.518;9.050;2022-11-15T10:06:12;9.23;;;6.27;;
14619;SDS011;32125;48.518;9.050;2022-11-15T10:11:32;10.47;;;6.60;;
14619;SDS011;32125;48.518;9.050;2022-11-15T10:22:41;11.33;;;6.70;;
14619;SDS011;32125;48.518;9.050;2022-11-15T10:25:15;7.87;;;6.20;;
14619;SDS011;32125;48.518;9.050;2022-11-15T10:27:46;11.23;;;7.03;;
14619;SDS011;32125;48.518;9.050;2022-11-15T10:30:19;7.83;;;6.80;;
14619;SDS011;32125;48.518;9.050;2022-11-15T10:32:48;15.63;;;6.97;;
14619;SDS011;32125;48.518;9.050;2022-11-15T10:35:22;11.93;;;6.57;;
14619;SDS011;32125;48.518;9.050;2022-11-15T10:37:48;10.40;;;6.70;;
14619;SDS011;32125;48.518;9.050;2022-11-15T10:40:16;8.53;;;6.27;;
14619;SDS011;32125;48.518;9.050;2022-11-15T10:45:51;11.30;;;6.50;;
14619;SDS011;32125;48.518;9.050;2022-11-15T10:50:46;7.27;;;6.10;;
14619;SDS011;32125;48.518;9.050;2022-11-15T10:55:42;7.83;;;5.80;;
14619;SDS011;32125;48.518;9.050;2022-11-15T11:01:07;8.03;;;5.10;;
14619;SDS011;32125;48.518;9.050;2022-11-15T11:04:08;8.63;;;5.30;;
14619;SDS011;32125;48.518;9.050;2022-11-15T11:11:51;8.33;;;5.53;;
14619;SDS011;32125;48.518;9.050;2022-11-15T11:14:22;8.67;;;5.57;;
14619;SDS011;32125;48.518;9.050;2022-11-15T11:27:13;8.73;;;4.70;;
14619;SDS011;32125;48.518;9.050;2022-11-15T11:32:21;6.23;;;4.20;;
14619;SDS011;32125;48.518;9.050;2022-11-15T11:51:05;5.97;;;4.37;;
14619;SDS011;32125;48.518;9.050;2022-11-15T11:53:52;6.67;;;4.20;;
14619;SDS011;32125;48.518;9.050;2022-11-15T11:58:48;7.00;;;4.37;;
14619;SDS011;32125;48.518;9.050;2022-11-15T12:06:35;7.20;;;4.60;;
14619;SDS011;32125;48.518;9.050;2022-11-15T12:14:45;6.27;;;5.17;;
14619;SDS011;32125;48.518;9.050;2022-11-15T12:17:12;7.47;;;5.00;;
14619;SDS011;32125;48.518;9.050;2022-11-15T12:19:39;10.60;;;5.00;;
14619;SDS011;32125;48.518;9.050;2022-11-15T12:24:51;9.03;;;4.90;;
14619;SDS011;32125;48.518;9.050;2022-11-15T12:30:00;7.70;;;4.40;;
14619;SDS011;32125;48.518;9.050;2022-11-15T12:32:30;6.20;;;3.80;;
14619;SDS011;32125;48.518;9.050;2022-11-15T12:34:56;7.33;;;4.37;;
14619;SDS011;32125;48.518;9.050;2022-11-15T12:43:00;10.90;;;4.67;;
14619;SDS011;32125;48.518;9.050;2022-11-15T12:45:39;6.97;;;4.03;;
14619;SDS011;32125;48.518;9.050;2022-11-15T13:01:06;11.77;;;4.57;;
14619;SDS011;32125;48.518;9.050;2022-11-15T13:03:35;8.93;;;4.60;;
14619;SDS011;32125;48.518;9.050;2022-11-15T13:06:02;11.13;;;4.87;;
14619;SDS011;32125;48.518;9.050;2022-11-15T13:08:39;8.13;;;4.40;;
14619;SDS011;32125;48.518;9.050;2022-11-15T13:14:43;10.37;;;4.60;;
14619;SDS011;32125;48.518;9.050;2022-11-15T13:19:58;7.60;;;4.80;;
14619;SDS011;32125;48.518;9.050;2022-11-15T13:22:26;7.03;;;4.53;;
14619;SDS011;32125;48.518;9.050;2022-11-15T13:30:39;10.43;;;4.70;;
14619;SDS011;32125;48.518;9.050;2022-11-15T13:33:17;9.60;;;5.30;;
14619;SDS011;32125;48.518;9.050;2022-11-15T13:35:45;12.47;;;6.10;;
14619;SDS011;32125;48.518;9.050;2022-11-15T13:38:18;11.73;;;5.83;;
14619;SDS011;32125;48.518;9.050;2022-11-15T13:40:44;11.17;;;5.70;;
14619;SDS011;32125;48.518;9.050;2022-11-15T13:43:26;11.57;;;5.87;;
14619;SDS011;32125;48.518;9.050;2022-11-15T13:48:44;11.03;;;5.70;;
14619;SDS011;32125;48.518;9.050;2022-11-15T13:51:16;6.90;;;5.90;;
14619;SDS011;32125;48.518;9.050;2022-11-15T13:53:44;11.80;;;6.13;;
14619;SDS011;32125;48.518;9.050;2022-11-15T13:56:12;11.77;;;6.00;;
14619;SDS011;32125;48.518;9.050;2022-11-15T13:58:38;8.50;;;5.67;;
14619;SDS011;32125;48.518;9.050;2022-11-15T14:01:04;9.80;;;5.97;;
14619;SDS011;32125;48.518;9.050;2022-11-15T14:03:31;7.87;;;6.20;;
14619;SDS011;32125;48.518;9.050;2022-11-15T14:08:32;9.33;;;6.30;;
14619;SDS011;32125;48.518;9.050;2022-11-15T14:11:20;8.63;;;6.20;;
14619;SDS011;32125;48.518;9.050;2022-11-15T14:16:38;8.73;;;6.30;;
14619;SDS011;32125;48.518;9.050;2022-11-15T14:19:06;9.50;;;5.97;;
14619;SDS011;32125;48.518;9.050;2022-11-15T14:21:32;8.80;;;6.17;;
14619;SDS011;32125;48.518;9.050;2022-11-15T14:24:18;9.27;;;6.43;;
14619;SDS011;32125;48.518;9.050;2022-11-15T14:26:48;10.60;;;6.50;;
14619;SDS011;32125;48.518;9.050;2022-11-15T14:29:27;8.50;;;6.17;;
14619;SDS011;32125;48.518;9.050;2022-11-15T14:31:54;8.30;;;5.67;;
14619;SDS011;32125;48.518;9.050;2022-11-15T14:34:37;8.00;;;6.20;;
14619;SDS011;32125;48.518;9.050;2022-11-15T14:37:03;8.20;;;6.03;;
14619;SDS011;32125;48.518;9.050;2022-11-15T14:39:31;8.33;;;5.90;;
14619;SDS011;32125;48.518;9.050;2022-11-15T14:41:57;9.10;;;5.70;;
14619;SDS011;32125;48.518;9.050;2022-11-15T14:44:26;7.37;;;6.00;;
14619;SDS011;32125;48.518;9.050;2022-11-15T14:46:52;7.53;;;6.17;;
14619;SDS011;32125;48.518;9.050;2022-11-15T14:49:18;13.63;;;6.80;;
14619;SDS011;32125;48.518;9.050;2022-11-15T14:51:44;10.80;;;7.37;;
14619;SDS011;32125;48.518;9.050;2022-11-15T14:54:10;11.03;;;7.63;;
14619;SDS011;32125;48.518;9.050;2022-11-15T14:56:39;9.20;;;7.17;;
14619;SDS011;32125;48.518;9.050;2022-11-15T14:59:05;8.63;;;6.90;;
14619;SDS011;32125;48.518;9.050;2022-11-15T15:01:31;10.47;;;6.67;;
14619;SDS011;32125;48.518;9.050;2022-11-15T15:03:57;9.57;;;7.00;;
14619;SDS011;32125;48.518;9.050;2022-11-15T15:06:24;11.20;;;7.87;;
14619;SDS011;32125;48.518;9.050;2022-11-15T15:08:50;11.53;;;8.13;;
14619;SDS011;32125;48.518;9.050;2022-11-15T15:11:25;10.67;;;7.23;;
14619;SDS011;32125;48.518;9.050;2022-11-15T15:13:54;9.77;;;7.30;;
14619;SDS011;32125;48.518;9.050;2022-11-15T15:16:25;9.83;;;7.00;;
14619;SDS011;32125;48.518;9.050;2022-11-15T15:18:51;9.87;;;7.33;;
14619;SDS011;32125;48.518;9.050;2022-11-15T15:21:24;10.33;;;7.23;;
14619;SDS011;32125;48.518;9.050;2022-11-15T15:23:53;11.17;;;7.27;;
14619;SDS011;32125;48.518;9.050;2022-11-15T15:26:20;10.80;;;7.70;;
14619;SDS011;32125;48.518;9.050;2022-11-15T15:28:46;13.83;;;7.90;;
14619;SDS011;32125;48.518;9.050;2022-11-15T15:31:13;12.47;;;7.40;;
14619;SDS011;32125;48.518;9.050;2022-11-15T15:33:40;16.87;;;8.50;;
14619;SDS011;32125;48.518;9.050;2022-11-15T15:36:16;21.70;;;8.50;;
14619;SDS011;32125;48.518;9.050;2022-11-15T15:38:43;16.17;;;8.30;;
14619;SDS011;32125;48.518;9.050;2022-11-15T15:41:12;16.20;;;9.33;;
14619;SDS011;32125;48.518;9.050;2022-11-15T15:43:41;16.87;;;9.30;;
14619;SDS011;32125;48.518;9.050;2022-11-15T15:46:12;17.97;;;8.73;;
14619;SDS011;32125;48.518;9.050;2022-11-15T15:48:39;15.77;;;11.30;;
14619;SDS011;32125;48.518;9.050;2022-11-15T15:51:05;14.33;;;10.73;;
14619;SDS011;32125;48.518;9.050;2022-11-15T15:53:32;15.47;;;10.77;;
14619;SDS011;32125;48.518;9.050;2022-11-15T15:56:00;32.63;;;21.60;;
14619;SDS011;32125;48.518;9.050;2022-11-15T15:58:26;32.40;;;22.07;;
14619;SDS011;32125;48.518;9.050;2022-11-15T16:00:54;29.43;;;19.70;;
14619;SDS011;32125;48.518;9.050;2022-11-15T16:03:23;22.50;;;15.63;;
14619;SDS011;32125;48.518;9.050;2022-11-15T16:05:50;17.00;;;12.97;;
14619;SDS011;32125;48.518;9.050;2022-11-15T16:08:20;18.17;;;13.40;;
14619;SDS011;32125;48.518;9.050;2022-11-15T16:10:51;19.33;;;14.03;;
14619;SDS011;32125;48.518;9.050;2022-11-15T16:13:18;16.83;;;10.70;;
14619;SDS011;32125;48.518;9.050;2022-11-15T16:15:48;12.87;;;9.43;;
14619;SDS011;32125;48.518;9.050;2022-11-15T16:18:18;12.83;;;9.60;;
14619;SDS011;32125;48.518;9.050;2022-11-15T16:20:45;11.83;;;9.20;;
14619;SDS011;32125;48.518;9.050;2022-11-15T16:23:14;11.33;;;8.93;;
14619;SDS011;32125;48.518;9.050;2022-11-15T16:25:48;12.07;;;8.40;;
14619;SDS011;32125;48.518;9.050;2022-11-15T16:28:18;11.33;;;8.47;;
14619;SDS011;32125;48.518;9.050;2022-11-15T16:30:44;13.53;;;8.37;;
14619;SDS011;32125;48.518;9.050;2022-11-15T16:33:10;10.60;;;8.10;;
14619;SDS011;32125;48.518;9.050;2022-11-15T16:35:37;11.07;;;7.90;;
14619;SDS011;32125;48.518;9.050;2022-11-15T16:38:03;9.20;;;8.10;;
14619;SDS011;32125;48.518;9.050;2022-11-15T16:40:33;13.37;;;8.07;;
14619;SDS011;32125;48.518;9.050;2022-11-15T16:43:01;12.30;;;7.93;;
14619;SDS011;32125;48.518;9.050;2022-11-15T16:45:28;15.03;;;8.20;;
14619;SDS011;32125;48.518;9.050;2022-11-15T16:47:55;13.87;;;8.70;;
14619;SDS011;32125;48.518;9.050;2022-11-15T16:50:23;12.17;;;8.70;;
14619;SDS011;32125;48.518;9.050;2022-11-15T16:52:50;12.10;;;8.93;;
14619;SDS011;32125;48.518;9.050;2022-11-15T16:55:16;10.30;;;8.33;;
14619;SDS011;32125;48.518;9.050;2022-11-15T16:57:42;14.37;;;8.97;;
14619;SDS011;32125;48.518;9.050;2022-11-15T17:00:18;10.57;;;8.23;;
14619;SDS011;32125;48.518;9.050;2022-11-15T17:02:48;10.77;;;8.60;;
14619;SDS011;32125;48.518;9.050;2022-11-15T17:05:18;11.37;;;8.30;;
14619;SDS011;32125;48.518;9.050;2022-11-15T17:10:32;13.73;;;11.07;;
14619;SDS011;32125;48.518;9.050;2022-11-15T17:12:58;11.03;;;9.13;;
14619;SDS011;32125;48.518;9.050;2022-11-15T17:15:26;10.23;;;9.00;;
14619;SDS011;32125;48.518;9.050;2022-11-15T17:17:53;12.03;;;9.50;;
14619;SDS011;32125;48.518;9.050;2022-11-15T17:20:21;13.00;;;10.60;;
14619;SDS011;32125;48.518;9.050;2022-11-15T17:22:50;17.43;;;11.73;;